createdAt,value
2019-01-13T00:00:27.703Z,100416.80
2019-01-13T00:02:59.332Z,100406.09
2019-01-13T00:05:30.629Z,100407.81
2019-01-13T00:08:01.860Z,100412.56
2019-01-13T00:10:34.206Z,100419.85
2019-01-13T00:13:05.854Z,100421.16
2019-01-13T00:15:37.224Z,100426.38
2019-01-13T00:18:08.494Z,100421.01
2019-01-13T00:20:40.025Z,100413.25
2019-01-13T00:23:11.322Z,100414.14
2019-01-13T00:25:42.596Z,100411.94
2019-01-13T00:28:13.890Z,100416.77
2019-01-13T00:30:45.117Z,100419.89
2019-01-13T00:33:16.501Z,100418.92
2019-01-13T00:35:47.795Z,100420.16
2019-01-13T00:38:19.145Z,100422.20
2019-01-13T00:40:50.444Z,100413.37
2019-01-13T00:43:21.782Z,100417.27
2019-01-13T00:45:53.075Z,100417.73
2019-01-13T00:48:24.412Z,100418.77
2019-01-13T00:50:55.635Z,100413.33
2019-01-13T00:53:26.928Z,100411.91
2019-01-13T00:55:58.163Z,100402.22
2019-01-13T00:58:29.644Z,100396.97
2019-01-13T01:01:00.852Z,100401.77
2019-01-13T01:03:32.209Z,100390.09
2019-01-13T01:06:03.678Z,100385.09
2019-01-13T01:08:34.940Z,100385.34
2019-01-13T01:11:06.329Z,100378.32
2019-01-13T01:13:37.649Z,100387.50
2019-01-13T01:16:09.123Z,100384.53
2019-01-13T01:18:40.425Z,100378.78
2019-01-13T01:21:11.708Z,100376.16
2019-01-13T01:23:42.997Z,100378.66
2019-01-13T01:26:14.289Z,100382.09
2019-01-13T01:28:45.573Z,100381.29
2019-01-13T01:31:16.871Z,100391.20
2019-01-13T01:33:48.112Z,100372.79
2019-01-13T01:36:19.395Z,100369.09
2019-01-13T01:38:50.611Z,100375.23
2019-01-13T01:41:21.932Z,100370.79
2019-01-13T01:43:53.208Z,100360.88
2019-01-13T01:46:24.477Z,100372.95
2019-01-13T01:48:55.728Z,100367.36
2019-01-13T01:51:26.966Z,100356.30
2019-01-13T01:53:58.148Z,100366.23
2019-01-13T01:56:29.424Z,100356.41
2019-01-13T01:59:00.747Z,100358.23
2019-01-13T02:01:31.937Z,100356.30
2019-01-13T02:04:03.237Z,100357.09
2019-01-13T02:06:34.529Z,100351.33
2019-01-13T02:09:08.090Z,100333.93
2019-01-13T02:11:39.329Z,100320.69
2019-01-13T02:14:10.671Z,100316.41
2019-01-13T02:16:41.923Z,100311.80
2019-01-13T02:19:13.277Z,100308.49
2019-01-13T02:21:44.534Z,100314.30
2019-01-13T02:24:15.785Z,100317.55
2019-01-13T02:26:47.073Z,100316.23
2019-01-13T02:29:18.373Z,100308.37
2019-01-13T02:31:49.677Z,100297.87
2019-01-13T02:34:20.920Z,100295.20
2019-01-13T02:36:52.102Z,100292.91
2019-01-13T02:39:23.345Z,100300.91
2019-01-13T02:41:54.639Z,100306.67
2019-01-13T02:44:25.923Z,100308.78
2019-01-13T02:46:57.122Z,100300.83
2019-01-13T02:49:28.359Z,100301.00
2019-01-13T02:51:59.654Z,100292.75
2019-01-13T02:54:30.815Z,100306.67
2019-01-13T02:57:02.093Z,100318.36
2019-01-13T02:59:33.351Z,100327.95
2019-01-13T03:02:04.903Z,100326.56
2019-01-13T03:04:36.169Z,100336.34
2019-01-13T03:07:07.435Z,100330.50
2019-01-13T03:09:38.686Z,100336.44
2019-01-13T03:12:09.973Z,100317.30
2019-01-13T03:14:41.193Z,100318.44
2019-01-13T03:17:12.409Z,100319.38
2019-01-13T03:19:43.646Z,100315.39
2019-01-13T03:22:14.993Z,100307.42
2019-01-13T03:24:53.540Z,100299.43
2019-01-13T03:27:24.825Z,100290.46
2019-01-13T03:29:56.126Z,100283.73
2019-01-13T03:32:27.421Z,100282.88
2019-01-13T03:34:58.750Z,100269.12
2019-01-13T03:37:30.001Z,100267.48
2019-01-13T03:40:01.276Z,100263.03
2019-01-13T03:42:32.514Z,100249.95
2019-01-13T03:45:03.833Z,100233.57
2019-01-13T03:47:35.078Z,100241.06
2019-01-13T03:50:08.460Z,100237.69
2019-01-13T03:52:39.833Z,100223.87
2019-01-13T03:55:12.382Z,100207.45
2019-01-13T03:57:43.737Z,100206.02
2019-01-13T04:00:23.774Z,100211.39
2019-01-13T04:02:55.593Z,100207.63
2019-01-13T04:05:26.902Z,100211.22
2019-01-13T04:07:58.137Z,100210.70
2019-01-13T04:10:29.387Z,100214.97
2019-01-13T04:13:00.671Z,100207.33
2019-01-13T04:16:03.684Z,100196.86
2019-01-13T04:18:35.024Z,100197.77
2019-01-13T04:21:06.338Z,100205.04
2019-01-13T04:23:37.668Z,100190.66
2019-01-13T04:26:08.910Z,100171.39
2019-01-13T04:28:40.163Z,100160.53
2019-01-13T04:31:11.373Z,100165.64
2019-01-13T04:33:42.647Z,100161.19
2019-01-13T04:36:13.901Z,100152.38
2019-01-13T04:38:45.207Z,100153.70
2019-01-13T04:41:16.467Z,100138.73
2019-01-13T04:43:47.755Z,100123.92
2019-01-13T04:46:19.001Z,100108.17
2019-01-13T04:48:50.289Z,100102.84
2019-01-13T04:51:21.565Z,100117.60
2019-01-13T04:53:52.806Z,100116.70
2019-01-13T04:56:24.138Z,100105.79
2019-01-13T04:58:55.396Z,100088.67
2019-01-13T05:01:34.170Z,100087.03
2019-01-13T05:03:59.714Z,100070.23
2019-01-13T05:06:30.986Z,100067.80
2019-01-13T05:09:02.195Z,100069.06
2019-01-13T05:11:33.490Z,100074.45
2019-01-13T05:14:04.798Z,100064.33
2019-01-13T05:16:35.996Z,100056.17
2019-01-13T05:19:07.246Z,100059.27
2019-01-13T05:21:38.585Z,100045.01
2019-01-13T05:24:09.891Z,100055.08
2019-01-13T05:26:41.138Z,100040.83
2019-01-13T05:29:12.464Z,100038.91
2019-01-13T05:31:43.728Z,100037.92
2019-01-13T05:34:15.019Z,100043.97
2019-01-13T05:36:46.167Z,100033.08
2019-01-13T05:39:17.479Z,100025.78
2019-01-13T05:41:48.821Z,100011.80
2019-01-13T05:44:20.106Z,100018.96
2019-01-13T05:46:51.346Z,100020.80
2019-01-13T05:49:22.597Z,100008.63
2019-01-13T05:51:53.756Z,100013.16
2019-01-13T05:54:25.001Z,100021.64
2019-01-13T05:56:56.199Z,100014.03
2019-01-13T05:59:27.463Z,100018.76
2019-01-13T06:01:58.710Z,100020.98
2019-01-13T06:04:29.876Z,100013.39
2019-01-13T06:07:01.140Z,100014.88
2019-01-13T06:09:32.387Z,100011.41
2019-01-13T06:12:03.635Z,100002.33
2019-01-13T06:14:34.885Z,100000.23
2019-01-13T06:17:06.073Z,99995.88
2019-01-13T06:19:37.268Z,99992.61
2019-01-13T06:22:08.530Z,100000.46
2019-01-13T06:24:39.786Z,99992.09
2019-01-13T06:27:10.976Z,99985.26
2019-01-13T06:29:42.292Z,99982.08
2019-01-13T06:32:13.530Z,99973.81
2019-01-13T06:34:44.820Z,99969.87
2019-01-13T06:37:17.148Z,99969.03
2019-01-13T06:39:48.337Z,99974.49
2019-01-13T06:42:19.587Z,99970.25
2019-01-13T06:44:50.882Z,99959.05
2019-01-13T06:47:22.056Z,99963.25
2019-01-13T06:49:53.335Z,99962.73
2019-01-13T06:52:24.553Z,99957.05
2019-01-13T06:54:55.852Z,99953.95
2019-01-13T06:57:27.105Z,99947.09
2019-01-13T06:59:58.383Z,99952.42
2019-01-13T07:02:29.558Z,99946.97
2019-01-13T07:05:00.779Z,99948.69
2019-01-13T07:07:32.001Z,99952.55
2019-01-13T07:10:03.178Z,99947.09
2019-01-13T07:12:34.399Z,99938.94
2019-01-13T07:15:07.128Z,99933.25
2019-01-13T07:17:38.324Z,99940.05
2019-01-13T07:20:12.865Z,99929.12
2019-01-13T07:22:44.214Z,99924.70
2019-01-13T07:25:15.371Z,99922.18
2019-01-13T07:28:05.731Z,99916.92
2019-01-13T07:36:02.237Z,99907.73
2019-01-13T07:38:33.510Z,99911.25
2019-01-13T07:41:04.795Z,99902.58
2019-01-13T07:43:36.086Z,99908.11
2019-01-13T07:46:07.297Z,99902.38
2019-01-13T07:48:38.569Z,99902.17
2019-01-13T07:51:09.835Z,99890.44
2019-01-13T07:53:41.077Z,99893.23
2019-01-13T07:56:12.334Z,99897.80
2019-01-13T07:58:43.624Z,99895.17
2019-01-13T08:01:14.884Z,99890.70
2019-01-13T08:03:46.037Z,99889.77
2019-01-13T08:06:17.282Z,99876.94
2019-01-13T08:08:48.463Z,99873.16
2019-01-13T08:11:19.721Z,99882.34
2019-01-13T08:13:50.998Z,99872.62
2019-01-13T08:16:22.248Z,99878.28
2019-01-13T08:18:53.535Z,99876.97
2019-01-13T08:21:24.887Z,99881.13
2019-01-13T08:23:56.111Z,99884.95
2019-01-13T08:26:27.354Z,99880.75
2019-01-13T08:28:58.591Z,99878.84
2019-01-13T08:31:29.776Z,99865.54
2019-01-13T08:34:01.063Z,99863.84
2019-01-13T08:36:32.337Z,99868.69
2019-01-13T08:39:04.800Z,99864.53
2019-01-13T08:41:36.042Z,99857.42
2019-01-13T08:44:07.343Z,99853.01
2019-01-13T08:46:38.593Z,99853.41
2019-01-13T08:49:09.894Z,99854.72
2019-01-13T08:51:41.120Z,99845.73
2019-01-13T08:54:12.430Z,99833.53
2019-01-13T08:56:43.706Z,99829.89
2019-01-13T08:59:15.000Z,99833.44
2019-01-13T09:01:46.237Z,99830.61
2019-01-13T09:04:17.532Z,99829.29
2019-01-13T09:06:48.755Z,99830.73
2019-01-13T09:09:20.030Z,99821.70
2019-01-13T09:11:51.247Z,99824.23
2019-01-13T09:14:22.522Z,99818.37
2019-01-13T09:16:54.128Z,99811.50
2019-01-13T09:19:29.124Z,99817.44
2019-01-13T09:22:00.486Z,99816.42
2019-01-13T09:24:31.798Z,99804.92
2019-01-13T09:27:03.245Z,99804.75
2019-01-13T09:29:34.854Z,99810.18
2019-01-13T09:32:06.337Z,99792.98
2019-01-13T09:34:37.734Z,99792.21
2019-01-13T09:37:09.017Z,99800.50
2019-01-13T09:39:40.304Z,99798.25
2019-01-13T09:42:11.817Z,99795.24
2019-01-13T09:44:43.111Z,99793.09
2019-01-13T09:47:14.352Z,99780.08
2019-01-13T09:49:49.868Z,99783.17
2019-01-13T09:52:18.557Z,99784.42
2019-01-13T09:54:49.820Z,99777.91
2019-01-13T09:57:21.185Z,99760.34
2019-01-13T09:59:52.440Z,99761.12
2019-01-13T10:02:23.677Z,99754.18
2019-01-13T10:04:54.975Z,99773.50
2019-01-13T10:07:26.786Z,99773.42
2019-01-13T10:09:58.052Z,99765.16
2019-01-13T10:12:29.213Z,99782.02
2019-01-13T10:15:00.491Z,99775.45
2019-01-13T10:17:38.140Z,99761.29
2019-01-13T10:20:11.452Z,99761.83
2019-01-13T10:22:42.750Z,99757.52
2019-01-13T10:25:14.474Z,99766.02
2019-01-13T10:27:46.674Z,99758.30
2019-01-13T10:30:25.079Z,99759.91
2019-01-13T10:32:56.392Z,99741.64
2019-01-13T10:35:35.716Z,99746.29
2019-01-13T10:38:07.270Z,99742.21
2019-01-13T10:40:38.547Z,99731.36
2019-01-13T10:43:09.780Z,99733.98
2019-01-13T10:45:41.115Z,99716.66
2019-01-13T10:48:12.300Z,99710.63
2019-01-13T10:50:43.698Z,99711.22
2019-01-13T10:53:16.916Z,99702.56
2019-01-13T10:55:48.217Z,99700.72
2019-01-13T10:58:38.472Z,99698.77
2019-01-13T11:01:16.006Z,99692.29
2019-01-13T11:03:56.506Z,99688.66
2019-01-13T11:06:27.821Z,99684.94
2019-01-13T11:08:59.100Z,99680.58
2019-01-13T11:11:30.295Z,99685.48
2019-01-13T11:14:01.592Z,99678.12
2019-01-13T11:16:32.822Z,99683.67
2019-01-13T11:19:04.073Z,99677.72
2019-01-13T11:21:35.314Z,99657.09
2019-01-13T11:24:06.674Z,99657.81
2019-01-13T11:26:37.916Z,99657.81
2019-01-13T11:29:09.080Z,99653.81
2019-01-13T11:31:40.307Z,99641.07
2019-01-13T11:34:11.540Z,99647.56
2019-01-13T11:36:42.739Z,99652.50
2019-01-13T11:39:14.034Z,99634.24
2019-01-13T11:41:45.248Z,99632.75
2019-01-13T11:44:16.603Z,99635.31
2019-01-13T11:46:47.785Z,99629.75
2019-01-13T11:49:19.036Z,99614.34
2019-01-13T11:51:50.260Z,99595.74
2019-01-13T11:54:21.575Z,99601.36
2019-01-13T11:56:52.871Z,99596.69
2019-01-13T11:59:24.179Z,99587.38
2019-01-13T12:01:55.411Z,99589.37
2019-01-13T12:04:26.673Z,99591.38
2019-01-13T12:12:03.147Z,99577.17
2019-01-13T12:14:34.462Z,99577.94
2019-01-13T12:17:05.720Z,99575.23
2019-01-13T12:19:37.013Z,99574.55
2019-01-13T12:22:08.336Z,99563.55
2019-01-13T12:24:39.632Z,99564.02
2019-01-13T12:27:10.863Z,99566.58
2019-01-13T12:29:42.197Z,99560.12
2019-01-13T12:32:13.581Z,99548.56
2019-01-13T12:34:44.846Z,99548.94
2019-01-13T12:37:16.200Z,99536.41
2019-01-13T12:39:47.429Z,99538.71
2019-01-13T12:42:18.676Z,99537.47
2019-01-13T12:44:49.933Z,99537.75
2019-01-13T12:47:21.188Z,99545.46
2019-01-13T12:49:52.458Z,99530.70
2019-01-13T12:52:23.593Z,99531.25
2019-01-13T12:54:54.880Z,99517.85
2019-01-13T12:57:26.211Z,99532.20
2019-01-13T12:59:57.497Z,99520.77
2019-01-13T13:02:28.736Z,99511.09
2019-01-13T13:04:59.928Z,99513.10
2019-01-13T13:07:31.232Z,99492.76
2019-01-13T13:10:02.598Z,99491.37
2019-01-13T13:12:33.823Z,99486.80
2019-01-13T13:15:06.125Z,99485.64
2019-01-13T13:17:37.624Z,99479.49
2019-01-13T13:20:09.822Z,99466.63
2019-01-13T13:22:41.032Z,99461.55
2019-01-13T13:25:13.062Z,99458.45
2019-01-13T13:27:44.306Z,99474.75
2019-01-13T13:30:20.314Z,99464.84
2019-01-13T13:32:51.766Z,99457.84
2019-01-13T13:35:23.022Z,99450.66
2019-01-13T13:37:55.575Z,99458.81
2019-01-13T13:40:27.324Z,99452.61
2019-01-13T13:42:58.546Z,99447.87
2019-01-13T13:45:29.844Z,99445.70
2019-01-13T13:48:01.116Z,99423.46
2019-01-13T13:50:32.371Z,99414.81
2019-01-13T13:53:03.637Z,99406.55
2019-01-13T13:55:34.909Z,99421.46
2019-01-13T13:58:06.840Z,99400.34
2019-01-13T14:00:40.068Z,99405.69
2019-01-13T14:03:11.368Z,99402.69
2019-01-13T14:05:42.583Z,99408.31
2019-01-13T14:08:13.894Z,99411.97
2019-01-13T14:10:45.801Z,99425.67
2019-01-13T14:13:16.952Z,99409.55
2019-01-13T14:15:48.191Z,99406.92
2019-01-13T14:18:19.406Z,99400.69
2019-01-13T14:20:50.581Z,99398.53
2019-01-13T14:23:21.815Z,99392.25
2019-01-13T14:25:53.251Z,99404.19
2019-01-13T14:30:57.898Z,99395.06
2019-01-13T14:33:30.842Z,99392.07
2019-01-13T14:36:02.086Z,99398.66
2019-01-13T14:38:33.943Z,99394.14
2019-01-13T14:41:07.010Z,99413.20
2019-01-13T14:43:38.444Z,99414.89
2019-01-13T14:46:09.815Z,99396.95
2019-01-13T14:48:41.431Z,99395.27
2019-01-13T14:51:12.715Z,99395.91
2019-01-13T14:53:44.232Z,99392.07
2019-01-13T14:56:20.313Z,99391.95
2019-01-13T14:58:52.145Z,99401.82
2019-01-13T15:01:24.252Z,99394.12
2019-01-13T15:03:59.890Z,99390.17
2019-01-13T15:06:29.119Z,99392.98
2019-01-13T15:09:00.585Z,99396.64
2019-01-13T15:11:31.959Z,99397.03
2019-01-13T15:14:03.170Z,99393.83
2019-01-13T15:16:34.540Z,99402.01
2019-01-13T15:19:06.327Z,99404.23
2019-01-13T15:21:37.723Z,99397.48
2019-01-13T15:24:09.331Z,99413.84
2019-01-13T15:26:40.693Z,99401.14
2019-01-13T15:29:12.012Z,99392.33
2019-01-13T15:31:43.307Z,99394.48
2019-01-13T15:34:14.804Z,99390.87
2019-01-13T15:36:46.845Z,99387.73
2019-01-13T15:39:18.248Z,99393.46
2019-01-13T15:41:49.540Z,99393.53
2019-01-13T15:44:21.143Z,99392.41
2019-01-13T15:46:52.500Z,99384.30
2019-01-13T15:49:29.281Z,99390.17
2019-01-13T15:52:00.496Z,99380.97
2019-01-13T15:54:32.422Z,99389.89
2019-01-13T15:57:03.891Z,99385.28
2019-01-13T15:59:35.154Z,99380.50
2019-01-13T16:02:08.393Z,99385.47
2019-01-13T16:04:39.987Z,99383.86
2019-01-13T16:07:20.855Z,99383.97
2019-01-13T16:09:53.717Z,99379.47
2019-01-13T16:12:25.842Z,99377.73
2019-01-13T16:14:57.079Z,99366.11
2019-01-13T16:17:28.851Z,99375.72
2019-01-13T16:20:00.452Z,99371.01
2019-01-13T16:22:32.808Z,99359.17
2019-01-13T16:25:04.051Z,99359.55
2019-01-13T16:27:35.459Z,99365.93
2019-01-13T16:30:11.796Z,99367.17
2019-01-13T16:32:43.463Z,99365.19
2019-01-13T16:35:14.935Z,99366.50
2019-01-13T16:37:46.305Z,99362.77
2019-01-13T16:40:23.336Z,99362.01
2019-01-13T16:42:54.774Z,99351.96
2019-01-13T16:45:25.349Z,99348.09
2019-01-13T16:47:56.574Z,99348.20
2019-01-13T16:50:29.685Z,99345.66
2019-01-13T16:53:01.467Z,99334.77
2019-01-13T16:55:32.894Z,99328.96
2019-01-13T16:58:04.158Z,99313.34
2019-01-13T17:00:35.521Z,99311.59
2019-01-13T17:03:07.250Z,99312.31
2019-01-13T17:05:38.412Z,99305.47
2019-01-13T17:08:09.699Z,99301.53
2019-01-13T17:10:40.969Z,99301.16
2019-01-13T17:13:12.236Z,99305.11
2019-01-13T17:15:43.469Z,99306.61
2019-01-13T17:18:14.904Z,99300.04
2019-01-13T17:20:46.198Z,99299.36
2019-01-13T17:23:17.478Z,99302.00
2019-01-13T17:25:48.662Z,99308.29
2019-01-13T17:28:20.053Z,99307.16
2019-01-13T17:30:51.305Z,99298.70
2019-01-13T17:33:22.573Z,99311.28
2019-01-13T17:35:53.823Z,99302.74
2019-01-13T17:38:25.184Z,99322.47
2019-01-13T17:40:56.482Z,99360.12
2019-01-13T17:43:27.790Z,99363.27
2019-01-13T17:45:59.073Z,99344.97
2019-01-13T17:48:30.292Z,99345.45
2019-01-13T17:51:01.874Z,99330.24
2019-01-13T17:53:33.191Z,99348.23
2019-01-13T17:56:04.557Z,99346.86
2019-01-13T17:58:35.857Z,99349.25
2019-01-13T18:01:41.753Z,99358.66
2019-01-13T18:04:12.851Z,99371.73
2019-01-13T18:06:44.065Z,99365.41
2019-01-13T18:09:15.251Z,99372.19
2019-01-13T18:11:46.580Z,99361.71
2019-01-13T18:14:19.204Z,99384.37
2019-01-13T18:16:50.569Z,99370.72
2019-01-13T18:19:22.044Z,99343.13
2019-01-13T18:21:53.328Z,99350.05
2019-01-13T18:24:24.817Z,99367.94
2019-01-13T18:26:56.135Z,99373.25
2019-01-13T18:29:27.612Z,99355.13
2019-01-13T18:31:59.022Z,99364.78
2019-01-13T18:34:30.924Z,99371.88
2019-01-13T18:37:02.330Z,99376.72
2019-01-13T18:39:34.708Z,99369.78
2019-01-13T18:42:06.204Z,99375.50
2019-01-13T18:44:37.651Z,99374.09
2019-01-13T18:47:08.845Z,99375.50
2019-01-13T18:49:40.322Z,99380.04
2019-01-13T18:52:11.612Z,99380.20
2019-01-13T18:54:43.762Z,99374.26
2019-01-13T18:57:15.116Z,99377.95
2019-01-13T18:59:46.473Z,99378.95
2019-01-13T19:02:17.739Z,99383.52
2019-01-13T19:04:48.994Z,99387.22
2019-01-13T19:07:20.394Z,99400.41
2019-01-13T19:09:51.629Z,99395.17
2019-01-13T19:12:22.954Z,99401.27
2019-01-13T19:14:59.448Z,99396.92
2019-01-13T19:17:31.006Z,99401.41
2019-01-13T19:20:24.351Z,99394.30
2019-01-13T19:23:00.673Z,99402.85
2019-01-13T19:25:34.821Z,99413.65
2019-01-13T19:28:06.378Z,99411.94
2019-01-13T19:30:37.740Z,99407.70
2019-01-13T19:33:09.017Z,99413.41
2019-01-13T19:35:40.279Z,99408.03
2019-01-13T19:38:11.628Z,99419.97
2019-01-13T19:40:42.947Z,99415.73
2019-01-13T19:43:14.227Z,99422.78
2019-01-13T19:45:45.496Z,99420.54
2019-01-13T19:48:16.723Z,99419.00
2019-01-13T19:50:48.086Z,99417.86
2019-01-13T19:53:19.328Z,99425.02
2019-01-13T19:55:50.677Z,99429.19
2019-01-13T19:58:21.934Z,99437.03
2019-01-13T20:00:53.218Z,99434.80
2019-01-13T20:03:24.504Z,99430.70
2019-01-13T20:05:55.839Z,99437.44
2019-01-13T20:08:27.414Z,99436.50
2019-01-13T20:10:58.763Z,99432.97
2019-01-13T20:13:30.121Z,99434.98
2019-01-13T20:16:01.484Z,99435.64
2019-01-13T20:18:32.903Z,99435.17
2019-01-13T20:21:04.490Z,99444.59
2019-01-13T20:23:36.070Z,99438.33
2019-01-13T20:26:08.208Z,99440.66
2019-01-13T20:28:39.593Z,99449.44
2019-01-13T20:31:11.034Z,99460.95
2019-01-13T20:33:45.785Z,99462.72
2019-01-13T20:36:17.225Z,99450.38
2019-01-13T20:38:48.686Z,99454.08
2019-01-13T20:41:20.180Z,99460.18
2019-01-13T20:43:51.675Z,99457.86
2019-01-13T20:46:23.222Z,99470.22
2019-01-13T20:48:55.374Z,99469.20
2019-01-13T20:51:26.853Z,99463.20
2019-01-13T20:53:58.691Z,99463.20
2019-01-13T20:56:30.083Z,99463.94
2019-01-13T20:59:01.455Z,99456.78
2019-01-13T21:01:32.759Z,99457.88
2019-01-13T21:04:04.162Z,99479.00
2019-01-13T21:06:35.584Z,99485.11
2019-01-13T21:09:11.116Z,99485.70
2019-01-13T21:11:42.444Z,99482.54
2019-01-13T21:14:13.729Z,99482.01
2019-01-13T21:16:45.081Z,99488.06
2019-01-13T21:19:16.405Z,99491.78
2019-01-13T21:21:47.657Z,99494.94
2019-01-13T21:24:18.959Z,99484.01
2019-01-13T21:26:50.150Z,99495.02
2019-01-13T21:29:21.453Z,99506.88
2019-01-13T21:32:03.042Z,99507.20
2019-01-13T21:34:34.332Z,99508.41
2019-01-13T21:37:05.897Z,99504.36
2019-01-13T21:39:37.199Z,99513.50
2019-01-13T21:42:08.421Z,99507.38
2019-01-13T21:44:39.719Z,99508.88
2019-01-13T21:47:11.048Z,99521.83
2019-01-13T21:49:42.338Z,99514.87
2019-01-13T21:52:13.605Z,99504.64
2019-01-13T21:54:44.976Z,99518.67
2019-01-13T21:57:16.220Z,99525.34
2019-01-13T21:59:47.617Z,99511.81
2019-01-13T22:02:18.969Z,99527.06
2019-01-13T22:04:50.264Z,99526.23
2019-01-13T22:07:21.504Z,99530.16
2019-01-13T22:09:52.650Z,99539.17
2019-01-13T22:12:23.886Z,99525.29
2019-01-13T22:14:55.202Z,99537.14
2019-01-13T22:17:26.499Z,99537.23
2019-01-13T22:19:57.735Z,99563.36
2019-01-13T22:22:28.996Z,99557.80
2019-01-13T22:25:04.038Z,99561.87
2019-01-13T22:27:49.322Z,99565.23
2019-01-13T22:30:26.695Z,99556.48
2019-01-13T22:33:00.525Z,99542.96
2019-01-13T22:35:31.795Z,99540.27
2019-01-13T22:38:03.031Z,99544.17
2019-01-13T22:40:34.346Z,99548.08
2019-01-13T22:43:05.890Z,99538.75
2019-01-13T22:45:37.155Z,99540.17
2019-01-13T22:48:08.356Z,99541.13
2019-01-13T22:50:39.645Z,99550.87
2019-01-13T22:53:10.890Z,99557.83
2019-01-13T22:55:45.161Z,99573.56
2019-01-13T22:58:16.364Z,99581.37
2019-01-13T23:01:20.480Z,99599.55
2019-01-13T23:03:52.306Z,99591.02
2019-01-13T23:06:23.690Z,99588.63
2019-01-13T23:08:54.947Z,99595.88
2019-01-13T23:11:26.181Z,99584.81
2019-01-13T23:13:59.561Z,99575.53
2019-01-13T23:16:30.847Z,99592.32
2019-01-13T23:19:02.128Z,99585.30
2019-01-13T23:21:33.359Z,99581.37
2019-01-13T23:24:05.451Z,99584.58
2019-01-13T23:26:36.748Z,99584.46
2019-01-13T23:29:08.231Z,99593.08
2019-01-13T23:31:39.479Z,99589.15
2019-01-13T23:34:10.823Z,99589.81
2019-01-13T23:36:42.090Z,99590.55
2019-01-13T23:39:14.244Z,99590.74
2019-01-13T23:41:45.574Z,99584.86
2019-01-13T23:44:18.714Z,99590.03
2019-01-13T23:46:50.060Z,99607.52
2019-01-13T23:49:22.015Z,99599.13
2019-01-13T23:51:53.361Z,99605.09
2019-01-13T23:54:24.675Z,99600.03
2019-01-13T23:56:55.980Z,99612.02
2019-01-13T23:59:27.393Z,99608.70
